createdAt,value
2019-03-23T00:01:56.252Z,63.57
2019-03-23T00:04:37.090Z,64.20
2019-03-23T00:07:17.563Z,61.53
2019-03-23T00:09:58.923Z,62.63
2019-03-23T00:12:40.119Z,62.20
2019-03-23T00:15:21.062Z,63.77
2019-03-23T00:18:02.064Z,64.10
2019-03-23T00:20:42.775Z,60.83
2019-03-23T00:23:23.501Z,66.23
2019-03-23T00:26:04.374Z,64.73
2019-03-23T00:28:45.025Z,63.63
2019-03-23T00:31:25.786Z,60.70
2019-03-23T00:34:06.467Z,61.43
2019-03-23T00:36:47.122Z,59.33
2019-03-23T00:39:27.740Z,58.97
2019-03-23T00:42:08.480Z,57.07
2019-03-23T00:44:49.373Z,57.67
2019-03-23T00:47:30.191Z,55.90
2019-03-23T00:50:11.012Z,54.23
2019-03-23T00:52:51.832Z,54.87
2019-03-23T00:55:32.399Z,53.43
2019-03-23T00:58:13.543Z,53.70
2019-03-23T01:00:54.217Z,53.10
2019-03-23T01:03:34.952Z,53.83
2019-03-23T01:06:15.905Z,52.60
2019-03-23T01:08:56.923Z,54.43
2019-03-23T01:11:37.805Z,54.23
2019-03-23T01:14:18.556Z,54.30
2019-03-23T01:16:58.988Z,51.53
2019-03-23T01:19:39.909Z,53.03
2019-03-23T01:22:20.813Z,53.00
2019-03-23T01:25:01.451Z,52.93
2019-03-23T01:30:24.493Z,54.43
2019-03-23T01:35:47.305Z,54.53
2019-03-23T01:38:29.980Z,55.20
2019-03-23T01:41:10.865Z,52.03
2019-03-23T01:43:51.522Z,55.37
2019-03-23T01:46:32.182Z,55.00
2019-03-23T01:49:13.097Z,54.27
2019-03-23T01:51:54.074Z,55.80
2019-03-23T01:54:34.868Z,55.37
2019-03-23T01:57:15.499Z,54.40
2019-03-23T01:59:56.010Z,54.07
2019-03-23T02:02:36.412Z,51.70
2019-03-23T02:05:16.973Z,50.80
2019-03-23T02:07:57.752Z,49.50
2019-03-23T02:10:41.793Z,48.63
2019-03-23T02:13:22.390Z,50.90
2019-03-23T02:16:03.155Z,49.60
2019-03-23T02:18:44.092Z,48.57
2019-03-23T02:21:24.932Z,47.43
2019-03-23T02:24:05.531Z,48.57
2019-03-23T02:26:46.197Z,47.90
2019-03-23T02:29:27.265Z,47.63
2019-03-23T02:32:07.940Z,47.40
2019-03-23T02:34:48.913Z,47.43
2019-03-23T02:37:30.209Z,47.67
2019-03-23T02:40:11.364Z,46.27
2019-03-23T02:42:51.812Z,46.67
2019-03-23T02:45:32.651Z,48.50
2019-03-23T02:48:13.582Z,45.87
2019-03-23T02:50:58.444Z,47.77
2019-03-23T02:53:39.057Z,48.20
2019-03-23T02:56:19.617Z,46.30
2019-03-23T02:59:00.148Z,48.80
2019-03-23T03:01:40.685Z,47.50
2019-03-23T03:04:21.416Z,46.67
2019-03-23T03:07:02.940Z,48.87
2019-03-23T03:09:44.045Z,49.43
2019-03-23T03:12:25.102Z,47.63
2019-03-23T03:15:06.021Z,48.43
2019-03-23T03:17:47.216Z,49.00
2019-03-23T03:20:28.838Z,48.80
2019-03-23T03:23:10.015Z,48.47
2019-03-23T03:25:51.540Z,48.57
2019-03-23T03:28:32.464Z,47.87
2019-03-23T03:31:13.167Z,48.70
2019-03-23T03:33:41.901Z,46.80
2019-03-23T03:36:30.337Z,48.13
2019-03-23T03:39:00.583Z,48.27
2019-03-23T03:41:48.746Z,48.60
2019-03-23T03:44:29.620Z,48.60
2019-03-23T03:46:58.243Z,47.10
2019-03-23T03:49:46.070Z,48.73
2019-03-23T03:52:33.905Z,44.90
2019-03-23T03:55:14.609Z,46.83
2019-03-23T03:57:55.650Z,45.63
2019-03-23T04:00:36.725Z,45.73
2019-03-23T04:03:17.118Z,49.13
2019-03-23T04:05:57.918Z,45.73
2019-03-23T04:08:39.086Z,45.53
2019-03-23T04:11:20.309Z,46.77
2019-03-23T04:14:01.138Z,45.97
2019-03-23T04:16:41.908Z,46.20
2019-03-23T04:19:22.842Z,44.77
2019-03-23T04:22:04.998Z,46.33
2019-03-23T04:24:45.390Z,45.53
2019-03-23T04:27:26.079Z,46.93
2019-03-23T04:30:06.841Z,45.17
2019-03-23T04:32:47.513Z,48.70
2019-03-23T04:35:28.433Z,46.97
2019-03-23T04:38:09.368Z,45.73
2019-03-23T04:40:50.521Z,44.80
2019-03-23T04:43:31.531Z,47.53
2019-03-23T04:46:12.176Z,46.07
2019-03-23T04:48:53.060Z,44.87
2019-03-23T04:51:33.754Z,46.77
2019-03-23T04:54:14.902Z,48.63
2019-03-23T04:56:55.647Z,45.60
2019-03-23T04:59:36.744Z,46.80
2019-03-23T05:02:17.661Z,47.63
2019-03-23T05:04:58.553Z,46.80
2019-03-23T05:07:39.336Z,47.03
2019-03-23T05:10:19.966Z,45.20
2019-03-23T05:13:01.286Z,47.77
2019-03-23T05:15:42.396Z,45.67
2019-03-23T05:18:23.181Z,45.80
2019-03-23T05:21:04.047Z,48.00
2019-03-23T05:23:45.906Z,47.73
2019-03-23T05:26:26.841Z,47.30
2019-03-23T05:29:08.880Z,46.27
2019-03-23T05:31:50.001Z,46.93
2019-03-23T05:34:30.909Z,47.57
2019-03-23T05:37:11.725Z,49.10
2019-03-23T05:39:52.655Z,47.73
2019-03-23T05:42:33.108Z,48.07
2019-03-23T05:45:14.209Z,47.77
2019-03-23T05:47:54.799Z,50.47
2019-03-23T05:50:35.521Z,47.43
2019-03-23T05:53:16.272Z,48.30
2019-03-23T05:55:57.039Z,47.77
2019-03-23T05:58:37.892Z,48.37
2019-03-23T06:01:18.684Z,47.30
2019-03-23T06:04:00.248Z,48.10
2019-03-23T06:06:41.141Z,48.13
2019-03-23T06:09:22.153Z,50.33
2019-03-23T06:12:04.869Z,47.47
2019-03-23T06:14:45.410Z,49.13
2019-03-23T06:17:25.974Z,49.50
2019-03-23T06:20:06.647Z,47.80
2019-03-23T06:22:47.257Z,48.77
2019-03-23T06:25:28.072Z,49.50
2019-03-23T06:28:08.977Z,48.90
2019-03-23T06:30:49.804Z,48.93
2019-03-23T06:33:30.809Z,48.37
2019-03-23T06:36:11.277Z,50.50
2019-03-23T06:38:51.536Z,48.83
2019-03-23T06:41:32.073Z,48.30
2019-03-23T06:44:12.501Z,49.83
2019-03-23T06:46:53.357Z,49.57
2019-03-23T06:49:34.155Z,49.03
2019-03-23T06:52:14.856Z,48.87
2019-03-23T06:54:55.914Z,47.83
2019-03-23T06:57:36.871Z,48.73
2019-03-23T07:00:17.599Z,49.50
2019-03-23T07:05:47.717Z,48.93
2019-03-23T07:08:32.188Z,46.40
2019-03-23T07:11:11.569Z,47.57
2019-03-23T07:13:52.321Z,48.30
2019-03-23T07:16:32.987Z,50.17
2019-03-23T07:19:13.941Z,47.37
2019-03-23T07:21:54.435Z,46.63
2019-03-23T07:24:35.376Z,48.20
2019-03-23T07:27:16.175Z,47.27
2019-03-23T07:29:57.019Z,48.40
2019-03-23T07:32:37.965Z,49.63
2019-03-23T07:38:01.535Z,48.20
2019-03-23T07:40:49.353Z,48.40
2019-03-23T07:43:37.175Z,49.00
2019-03-23T07:46:05.761Z,51.10
2019-03-23T07:48:53.670Z,50.53
2019-03-23T07:51:34.871Z,46.77
2019-03-23T07:54:15.478Z,49.33
2019-03-23T07:56:56.258Z,47.77
2019-03-23T07:59:37.558Z,47.93
2019-03-23T08:02:18.355Z,48.40
2019-03-23T08:04:59.245Z,47.43
2019-03-23T08:07:28.127Z,48.23
2019-03-23T08:10:27.262Z,48.40
2019-03-23T08:13:08.415Z,48.20
2019-03-23T08:15:49.689Z,48.70
2019-03-23T08:18:30.244Z,47.83
2019-03-23T08:21:11.054Z,50.57
2019-03-23T08:23:51.660Z,47.47
2019-03-23T08:26:32.550Z,47.73
2019-03-23T08:29:13.253Z,47.53
2019-03-23T08:31:54.526Z,47.10
2019-03-23T08:34:35.477Z,45.90
2019-03-23T08:37:44.019Z,46.43
2019-03-23T08:40:31.930Z,46.30
2019-03-23T08:43:12.581Z,45.47
2019-03-23T08:45:53.215Z,46.17
2019-03-23T08:48:34.189Z,45.73
2019-03-23T08:51:14.985Z,48.33
2019-03-23T08:53:55.651Z,46.13
2019-03-23T08:56:37.461Z,47.17
2019-03-23T08:59:17.983Z,43.63
2019-03-23T09:01:58.660Z,44.47
2019-03-23T09:04:39.672Z,45.53
2019-03-23T09:07:20.494Z,44.77
2019-03-23T09:10:01.481Z,44.63
2019-03-23T09:12:41.938Z,42.80
2019-03-23T09:15:22.546Z,42.23
2019-03-23T09:18:03.382Z,41.67
2019-03-23T09:20:43.850Z,41.97
2019-03-23T09:23:24.771Z,40.83
2019-03-23T09:26:05.568Z,38.93
2019-03-23T09:28:44.361Z,37.97
2019-03-23T09:31:23.305Z,39.70
2019-03-23T09:34:11.541Z,38.03
2019-03-23T09:36:52.525Z,40.63
2019-03-23T09:39:32.984Z,37.90
2019-03-23T09:42:14.050Z,39.43
2019-03-23T09:44:54.800Z,38.03
2019-03-23T09:47:35.743Z,37.50
2019-03-23T09:50:16.619Z,38.73
2019-03-23T09:52:57.705Z,37.67
2019-03-23T09:55:38.448Z,37.97
2019-03-23T09:58:19.299Z,39.13
2019-03-23T10:01:00.250Z,36.90
2019-03-23T10:03:42.875Z,37.43
2019-03-23T10:06:23.487Z,37.10
2019-03-23T10:09:04.696Z,35.80
2019-03-23T10:11:45.344Z,35.23
2019-03-23T10:14:26.407Z,36.53
2019-03-23T10:17:07.287Z,37.67
2019-03-23T10:19:48.218Z,35.40
2019-03-23T10:22:28.813Z,35.87
2019-03-23T10:25:09.559Z,36.53
2019-03-23T10:27:51.242Z,36.63
2019-03-23T10:30:31.880Z,36.53
2019-03-23T10:33:12.708Z,34.50
2019-03-23T10:35:53.295Z,35.43
2019-03-23T10:38:34.219Z,33.83
2019-03-23T10:41:15.213Z,36.77
2019-03-23T10:43:55.860Z,34.23
2019-03-23T10:46:36.842Z,35.80
2019-03-23T10:49:17.587Z,34.80
2019-03-23T10:51:58.479Z,33.70
2019-03-23T10:54:39.442Z,34.90
2019-03-23T10:57:20.573Z,34.77
2019-03-23T11:00:01.452Z,33.20
2019-03-23T11:02:42.356Z,34.53
2019-03-23T11:05:22.895Z,34.37
2019-03-23T11:08:03.364Z,32.97
2019-03-23T11:10:43.864Z,33.10
2019-03-23T11:13:24.510Z,34.13
2019-03-23T11:16:05.089Z,34.80
2019-03-23T11:18:45.714Z,33.43
2019-03-23T11:21:26.596Z,32.73
2019-03-23T11:24:07.307Z,33.83
2019-03-23T11:26:47.827Z,34.63
2019-03-23T11:29:28.903Z,34.43
2019-03-23T11:32:10.914Z,35.13
2019-03-23T11:34:51.878Z,31.63
2019-03-23T11:37:33.021Z,35.73
2019-03-23T11:40:14.103Z,32.70
2019-03-23T11:42:55.181Z,34.57
2019-03-23T11:45:35.996Z,34.13
2019-03-23T11:48:16.759Z,32.23
2019-03-23T11:50:57.679Z,32.30
2019-03-23T11:53:38.735Z,33.17
2019-03-23T11:56:20.532Z,32.30
2019-03-23T11:59:01.121Z,31.00
2019-03-23T12:01:51.513Z,30.37
2019-03-23T12:04:26.696Z,32.30
2019-03-23T12:07:08.520Z,31.67
2019-03-23T12:09:49.411Z,29.40
2019-03-23T12:12:32.305Z,31.63
2019-03-23T12:15:13.178Z,31.80
2019-03-23T12:17:54.346Z,32.90
2019-03-23T12:20:35.195Z,31.93
2019-03-23T12:23:16.069Z,31.77
2019-03-23T12:25:57.059Z,31.13
2019-03-23T12:28:37.753Z,32.20
2019-03-23T12:31:20.600Z,33.70
2019-03-23T12:34:00.701Z,32.53
2019-03-23T12:36:41.839Z,32.50
2019-03-23T12:39:22.763Z,33.90
2019-03-23T12:42:03.790Z,33.13
2019-03-23T12:44:44.124Z,34.30
2019-03-23T12:47:25.156Z,33.00
2019-03-23T12:50:06.309Z,30.57
2019-03-23T12:52:46.662Z,30.77
2019-03-23T12:55:27.558Z,31.30
2019-03-23T12:58:08.292Z,31.17
2019-03-23T13:00:48.955Z,31.03
2019-03-23T13:03:29.572Z,30.30
2019-03-23T13:06:10.430Z,28.03
2019-03-23T13:08:51.126Z,27.93
2019-03-23T13:11:35.694Z,28.97
2019-03-23T13:14:14.578Z,28.40
2019-03-23T13:16:55.162Z,27.50
2019-03-23T13:19:35.932Z,28.20
2019-03-23T13:22:16.744Z,26.93
2019-03-23T13:24:58.022Z,28.93
2019-03-23T13:27:38.536Z,28.73
2019-03-23T13:30:19.597Z,28.37
2019-03-23T13:33:00.172Z,28.13
2019-03-23T13:35:40.930Z,32.07
2019-03-23T13:38:23.083Z,33.17
2019-03-23T13:41:03.925Z,32.60
2019-03-23T13:43:44.456Z,31.10
2019-03-23T13:46:25.511Z,33.30
2019-03-23T13:49:06.027Z,31.93
2019-03-23T13:51:47.113Z,34.40
2019-03-23T13:54:28.836Z,30.67
2019-03-23T13:57:09.128Z,34.60
2019-03-23T14:02:51.238Z,34.23
2019-03-23T14:05:31.854Z,36.30
2019-03-23T14:08:12.787Z,37.10
2019-03-23T14:10:53.324Z,37.17
2019-03-23T14:13:33.907Z,37.90
2019-03-23T14:16:17.564Z,37.40
2019-03-23T14:18:58.289Z,37.10
2019-03-23T14:21:38.877Z,32.27
2019-03-23T14:24:19.396Z,31.60
2019-03-23T14:27:02.366Z,31.53
2019-03-23T14:29:45.360Z,28.60
2019-03-23T14:32:26.090Z,29.10
2019-03-23T14:35:07.003Z,27.67
2019-03-23T14:37:48.028Z,28.10
2019-03-23T14:40:29.107Z,25.37
2019-03-23T14:43:09.792Z,26.83
2019-03-23T14:45:50.503Z,25.53
2019-03-23T14:48:31.043Z,20.40
2019-03-23T14:51:11.808Z,19.20
2019-03-23T14:53:52.648Z,18.97
2019-03-23T14:56:33.770Z,18.33
2019-03-23T14:59:14.104Z,18.00
2019-03-23T15:01:54.833Z,17.20
2019-03-23T15:04:35.266Z,15.47
2019-03-23T15:07:16.212Z,16.37
2019-03-23T15:09:56.667Z,16.20
2019-03-23T15:12:37.571Z,12.53
2019-03-23T15:15:18.121Z,12.97
2019-03-23T15:17:59.002Z,12.30
2019-03-23T15:20:39.849Z,11.07
2019-03-23T15:23:21.002Z,12.33
2019-03-23T15:26:01.730Z,11.47
2019-03-23T15:28:43.738Z,9.13
2019-03-23T15:31:24.417Z,9.27
2019-03-23T15:34:05.158Z,8.03
2019-03-23T15:36:45.906Z,6.57
2019-03-23T15:39:26.835Z,6.03
2019-03-23T15:42:07.423Z,5.70
2019-03-23T15:44:48.109Z,5.07
2019-03-23T15:47:28.874Z,4.93
2019-03-23T15:50:10.391Z,5.57
2019-03-23T15:52:51.406Z,4.00
2019-03-23T15:58:44.709Z,3.47
2019-03-23T16:01:25.534Z,3.70
2019-03-23T16:04:06.104Z,2.97
2019-03-23T16:06:46.751Z,2.80
2019-03-23T16:09:27.345Z,2.70
2019-03-23T16:12:07.770Z,3.30
2019-03-23T16:14:48.640Z,2.67
2019-03-23T16:17:29.312Z,3.20
2019-03-23T16:20:10.041Z,2.73
2019-03-23T16:22:50.942Z,3.73
2019-03-23T16:25:31.926Z,2.43
2019-03-23T16:28:12.984Z,3.07
2019-03-23T16:30:53.957Z,3.10
2019-03-23T16:33:34.747Z,3.20
2019-03-23T16:36:15.265Z,3.90
2019-03-23T16:38:56.130Z,7.77
2019-03-23T16:41:36.774Z,4.00
2019-03-23T16:44:17.638Z,3.37
2019-03-23T16:46:58.510Z,4.30
2019-03-23T16:49:39.455Z,2.93
2019-03-23T16:52:21.369Z,3.13
2019-03-23T16:55:05.148Z,3.37
2019-03-23T17:00:58.436Z,3.03
2019-03-23T17:03:46.225Z,2.97
2019-03-23T17:06:34.046Z,4.33
2019-03-23T17:09:18.196Z,3.80
2019-03-23T17:11:59.308Z,3.47
2019-03-23T17:14:40.363Z,4.57
2019-03-23T17:17:21.298Z,3.33
2019-03-23T17:20:02.101Z,3.00
2019-03-23T17:22:43.053Z,3.40
2019-03-23T17:25:23.879Z,4.27
2019-03-23T17:28:05.994Z,4.00
2019-03-23T17:30:49.713Z,3.20
2019-03-23T17:33:30.084Z,3.50
2019-03-23T17:36:10.818Z,3.50
2019-03-23T17:38:51.249Z,4.27
2019-03-23T17:44:19.863Z,4.57
2019-03-23T17:47:00.667Z,3.80
2019-03-23T17:49:42.680Z,3.40
2019-03-23T17:52:23.584Z,4.10
2019-03-23T17:55:03.948Z,4.83
2019-03-23T17:57:44.539Z,4.77
2019-03-23T18:03:14.760Z,4.43
2019-03-23T18:05:56.152Z,4.03
2019-03-23T18:08:36.992Z,4.03
2019-03-23T18:11:17.653Z,4.00
2019-03-23T18:13:58.809Z,4.33
2019-03-23T18:16:40.302Z,4.13
2019-03-23T18:19:21.215Z,3.27
2019-03-23T18:22:02.433Z,3.87
2019-03-23T18:27:29.090Z,4.80
2019-03-23T18:30:09.615Z,4.30
2019-03-23T18:32:50.151Z,4.07
2019-03-23T18:35:31.148Z,4.73
2019-03-23T18:38:11.606Z,4.07
2019-03-23T18:40:55.680Z,4.10
2019-03-23T18:43:36.821Z,4.47
2019-03-23T18:46:17.399Z,4.00
2019-03-23T18:48:58.035Z,4.73
2019-03-23T18:51:38.517Z,4.20
2019-03-23T18:54:19.223Z,3.90
2019-03-23T18:57:01.276Z,4.30
2019-03-23T18:59:18.272Z,4.20
2019-03-23T19:02:06.163Z,3.93
2019-03-23T19:04:47.018Z,3.87
2019-03-23T19:07:32.334Z,3.60
2019-03-23T19:10:13.675Z,4.13
2019-03-23T19:12:54.438Z,4.70
2019-03-23T19:15:35.398Z,3.30
2019-03-23T19:18:16.241Z,3.40
2019-03-23T19:20:58.661Z,4.00
2019-03-23T19:23:41.146Z,4.83
2019-03-23T19:29:00.605Z,4.03
2019-03-23T19:31:41.448Z,4.43
2019-03-23T19:34:25.213Z,4.53
2019-03-23T19:39:47.907Z,4.20
2019-03-23T19:42:28.436Z,3.60
2019-03-23T19:45:10.355Z,4.07
2019-03-23T19:50:35.824Z,3.93
2019-03-23T19:53:16.798Z,4.53
2019-03-23T19:55:57.647Z,4.83
2019-03-23T19:58:38.545Z,4.03
2019-03-23T20:01:19.315Z,3.10
2019-03-23T20:04:00.180Z,4.03
2019-03-23T20:06:41.344Z,4.37
2019-03-23T20:09:21.816Z,4.27
2019-03-23T20:12:02.457Z,4.33
2019-03-23T20:14:43.753Z,4.40
2019-03-23T20:17:24.247Z,3.70
2019-03-23T20:20:05.106Z,4.83
2019-03-23T20:22:45.625Z,3.80
2019-03-23T20:25:26.348Z,4.27
2019-03-23T20:28:07.064Z,4.87
2019-03-23T20:30:48.178Z,5.30
2019-03-23T20:33:28.705Z,3.43
2019-03-23T20:36:09.443Z,4.00
2019-03-23T20:38:50.507Z,3.90
2019-03-23T20:41:31.234Z,4.57
2019-03-23T20:44:12.218Z,4.83
2019-03-23T20:46:52.796Z,4.20
2019-03-23T20:49:33.575Z,4.43
2019-03-23T20:52:13.889Z,4.07
2019-03-23T20:54:54.623Z,3.87
2019-03-23T20:57:37.690Z,4.63
2019-03-23T21:00:19.679Z,4.77
2019-03-23T21:03:03.697Z,4.97
2019-03-23T21:08:28.518Z,4.03
2019-03-23T21:13:51.598Z,3.70
2019-03-23T21:16:34.250Z,4.60
2019-03-23T21:19:15.245Z,3.73
2019-03-23T21:21:56.119Z,4.70
2019-03-23T21:27:22.721Z,4.60
2019-03-23T21:30:03.773Z,3.83
2019-03-23T21:32:44.557Z,4.97
2019-03-23T21:35:24.960Z,4.87
2019-03-23T21:38:05.906Z,6.53
2019-03-23T21:40:46.299Z,4.90
2019-03-23T21:43:26.885Z,5.20
2019-03-23T21:48:51.466Z,5.33
2019-03-23T21:51:32.199Z,4.93
2019-03-23T21:54:13.071Z,4.47
2019-03-23T21:56:53.515Z,5.53
2019-03-23T21:59:34.748Z,5.53
2019-03-23T22:02:16.940Z,5.20
2019-03-23T22:04:45.420Z,4.83
2019-03-23T22:07:33.210Z,5.57
2019-03-23T22:10:13.838Z,5.57
2019-03-23T22:12:54.798Z,5.47
2019-03-23T22:15:35.470Z,5.47
2019-03-23T22:18:16.382Z,5.60
2019-03-23T22:20:57.702Z,5.30
2019-03-23T22:23:38.555Z,5.40
2019-03-23T22:26:19.105Z,5.00
2019-03-23T22:28:59.754Z,5.63
2019-03-23T22:31:40.482Z,5.13
2019-03-23T22:34:21.196Z,5.67
2019-03-23T22:37:02.249Z,5.03
2019-03-23T22:39:42.874Z,4.90
2019-03-23T22:42:23.911Z,4.77
2019-03-23T22:45:04.291Z,6.07
2019-03-23T22:47:45.144Z,5.83
2019-03-23T22:50:26.125Z,5.50
2019-03-23T22:53:06.978Z,5.57
2019-03-23T22:55:47.836Z,5.37
2019-03-23T22:58:28.572Z,5.13
2019-03-23T23:01:09.373Z,4.47
2019-03-23T23:03:49.984Z,4.67
2019-03-23T23:06:29.249Z,4.77
2019-03-23T23:09:17.143Z,4.93
2019-03-23T23:11:57.646Z,4.83
2019-03-23T23:14:38.268Z,4.33
2019-03-23T23:17:19.385Z,4.00
2019-03-23T23:20:00.311Z,4.10
2019-03-23T23:22:41.232Z,4.80
2019-03-23T23:25:22.001Z,4.40
2019-03-23T23:28:02.940Z,4.43
2019-03-23T23:30:43.603Z,4.73
2019-03-23T23:33:24.088Z,5.63
2019-03-23T23:36:05.156Z,4.67
2019-03-23T23:38:45.475Z,4.07
2019-03-23T23:41:26.332Z,5.23
2019-03-23T23:44:07.368Z,3.90
2019-03-23T23:46:48.204Z,5.17
2019-03-23T23:49:29.224Z,4.60
2019-03-23T23:52:09.875Z,4.70
2019-03-23T23:54:50.567Z,4.70
2019-03-23T23:57:31.064Z,4.10
